sensor_id;sensor_type;location;lat;lon;timestamp;P1;durP1;ratioP1;P2;durP2;ratioP2
14903;SDS011;7543;53.148;8.234;2024-01-10T00:01:49;13.13;;;7.20;;
14903;SDS011;7543;53.148;8.234;2024-01-10T00:04:17;15.47;;;8.13;;
14903;SDS011;7543;53.148;8.234;2024-01-10T00:06:46;15.10;;;7.30;;
14903;SDS011;7543;53.148;8.234;2024-01-10T00:09:16;17.27;;;7.77;;
14903;SDS011;7543;53.148;8.234;2024-01-10T00:11:44;13.57;;;7.67;;
14903;SDS011;7543;53.148;8.234;2024-01-10T00:14:13;16.03;;;8.63;;
14903;SDS011;7543;53.148;8.234;2024-01-10T00:16:41;13.43;;;7.40;;
14903;SDS011;7543;53.148;8.234;2024-01-10T00:19:09;15.40;;;7.80;;
14903;SDS011;7543;53.148;8.234;2024-01-10T00:21:38;16.17;;;8.27;;
14903;SDS011;7543;53.148;8.234;2024-01-10T00:24:06;16.30;;;8.30;;
14903;SDS011;7543;53.148;8.234;2024-01-10T00:26:36;18.47;;;9.50;;
14903;SDS011;7543;53.148;8.234;2024-01-10T00:29:04;15.27;;;8.80;;
14903;SDS011;7543;53.148;8.234;2024-01-10T00:31:32;16.77;;;8.97;;
14903;SDS011;7543;53.148;8.234;2024-01-10T00:34:01;18.03;;;9.00;;
14903;SDS011;7543;53.148;8.234;2024-01-10T00:36:29;15.63;;;8.77;;
14903;SDS011;7543;53.148;8.234;2024-01-10T00:38:57;19.17;;;9.10;;
14903;SDS011;7543;53.148;8.234;2024-01-10T00:41:26;18.90;;;9.20;;
14903;SDS011;7543;53.148;8.234;2024-01-10T00:43:55;15.33;;;8.60;;
14903;SDS011;7543;53.148;8.234;2024-01-10T00:46:24;17.37;;;8.23;;
14903;SDS011;7543;53.148;8.234;2024-01-10T00:48:52;17.27;;;8.77;;
14903;SDS011;7543;53.148;8.234;2024-01-10T00:51:20;15.37;;;8.50;;
14903;SDS011;7543;53.148;8.234;2024-01-10T00:53:49;15.33;;;7.70;;
14903;SDS011;7543;53.148;8.234;2024-01-10T00:56:17;15.47;;;8.47;;
14903;SDS011;7543;53.148;8.234;2024-01-10T00:58:45;18.07;;;8.00;;
14903;SDS011;7543;53.148;8.234;2024-01-10T01:01:15;13.77;;;7.77;;
14903;SDS011;7543;53.148;8.234;2024-01-10T01:03:43;17.23;;;7.73;;
14903;SDS011;7543;53.148;8.234;2024-01-10T01:06:12;17.27;;;8.00;;
14903;SDS011;7543;53.148;8.234;2024-01-10T01:08:40;18.20;;;8.40;;
14903;SDS011;7543;53.148;8.234;2024-01-10T01:11:08;18.20;;;7.37;;
14903;SDS011;7543;53.148;8.234;2024-01-10T01:13:37;13.07;;;7.07;;
14903;SDS011;7543;53.148;8.234;2024-01-10T01:16:05;17.07;;;7.80;;
14903;SDS011;7543;53.148;8.234;2024-01-10T01:18:35;16.00;;;7.33;;
14903;SDS011;7543;53.148;8.234;2024-01-10T01:21:04;20.37;;;8.30;;
14903;SDS011;7543;53.148;8.234;2024-01-10T01:23:32;14.30;;;8.20;;
14903;SDS011;7543;53.148;8.234;2024-01-10T01:26:00;18.43;;;8.50;;
14903;SDS011;7543;53.148;8.234;2024-01-10T01:28:30;18.73;;;9.03;;
14903;SDS011;7543;53.148;8.234;2024-01-10T01:30:59;15.73;;;8.40;;
14903;SDS011;7543;53.148;8.234;2024-01-10T01:33:27;18.87;;;8.33;;
14903;SDS011;7543;53.148;8.234;2024-01-10T01:35:57;15.80;;;9.20;;
14903;SDS011;7543;53.148;8.234;2024-01-10T01:38:25;16.13;;;8.80;;
14903;SDS011;7543;53.148;8.234;2024-01-10T01:40:53;13.63;;;8.07;;
14903;SDS011;7543;53.148;8.234;2024-01-10T01:43:22;16.63;;;8.83;;
14903;SDS011;7543;53.148;8.234;2024-01-10T01:45:52;18.40;;;9.17;;
14903;SDS011;7543;53.148;8.234;2024-01-10T01:48:22;16.67;;;8.77;;
14903;SDS011;7543;53.148;8.234;2024-01-10T01:50:58;18.23;;;9.67;;
14903;SDS011;7543;53.148;8.234;2024-01-10T01:53:30;19.47;;;8.70;;
14903;SDS011;7543;53.148;8.234;2024-01-10T01:55:59;22.00;;;9.43;;
14903;SDS011;7543;53.148;8.234;2024-01-10T01:58:28;15.43;;;7.97;;
14903;SDS011;7543;53.148;8.234;2024-01-10T02:00:56;19.63;;;9.00;;
14903;SDS011;7543;53.148;8.234;2024-01-10T02:03:25;21.07;;;9.87;;
14903;SDS011;7543;53.148;8.234;2024-01-10T02:05:54;19.77;;;8.93;;
14903;SDS011;7543;53.148;8.234;2024-01-10T02:08:24;16.73;;;8.93;;
14903;SDS011;7543;53.148;8.234;2024-01-10T02:10:52;15.93;;;8.63;;
14903;SDS011;7543;53.148;8.234;2024-01-10T02:13:20;15.57;;;8.47;;
14903;SDS011;7543;53.148;8.234;2024-01-10T02:15:49;19.07;;;8.97;;
14903;SDS011;7543;53.148;8.234;2024-01-10T02:18:17;15.37;;;8.63;;
14903;SDS011;7543;53.148;8.234;2024-01-10T02:20:46;16.70;;;8.83;;
14903;SDS011;7543;53.148;8.234;2024-01-10T02:23:14;18.80;;;8.73;;
14903;SDS011;7543;53.148;8.234;2024-01-10T02:25:44;18.63;;;9.10;;
14903;SDS011;7543;53.148;8.234;2024-01-10T02:28:12;16.23;;;8.60;;
14903;SDS011;7543;53.148;8.234;2024-01-10T02:30:41;17.33;;;8.23;;
14903;SDS011;7543;53.148;8.234;2024-01-10T02:33:09;18.57;;;8.50;;
14903;SDS011;7543;53.148;8.234;2024-01-10T02:35:37;15.77;;;8.33;;
14903;SDS011;7543;53.148;8.234;2024-01-10T02:38:06;19.17;;;9.10;;
14903;SDS011;7543;53.148;8.234;2024-01-10T02:40:34;14.73;;;7.93;;
14903;SDS011;7543;53.148;8.234;2024-01-10T02:43:04;15.33;;;7.97;;
14903;SDS011;7543;53.148;8.234;2024-01-10T02:45:33;13.80;;;6.77;;
14903;SDS011;7543;53.148;8.234;2024-01-10T02:48:02;15.00;;;7.93;;
14903;SDS011;7543;53.148;8.234;2024-01-10T02:50:31;20.83;;;8.47;;
14903;SDS011;7543;53.148;8.234;2024-01-10T02:52:59;16.87;;;8.33;;
14903;SDS011;7543;53.148;8.234;2024-01-10T02:55:28;14.53;;;7.50;;
14903;SDS011;7543;53.148;8.234;2024-01-10T02:57:56;18.60;;;8.47;;
14903;SDS011;7543;53.148;8.234;2024-01-10T03:00:26;14.37;;;8.10;;
14903;SDS011;7543;53.148;8.234;2024-01-10T03:02:54;11.73;;;7.57;;
14903;SDS011;7543;53.148;8.234;2024-01-10T03:05:22;14.10;;;7.13;;
14903;SDS011;7543;53.148;8.234;2024-01-10T03:07:50;17.20;;;7.27;;
14903;SDS011;7543;53.148;8.234;2024-01-10T03:10:19;15.77;;;8.40;;
14903;SDS011;7543;53.148;8.234;2024-01-10T03:12:47;14.17;;;8.60;;
14903;SDS011;7543;53.148;8.234;2024-01-10T03:15:15;21.73;;;10.23;;
14903;SDS011;7543;53.148;8.234;2024-01-10T03:17:45;14.63;;;7.73;;
14903;SDS011;7543;53.148;8.234;2024-01-10T03:20:14;17.57;;;8.67;;
14903;SDS011;7543;53.148;8.234;2024-01-10T03:22:42;16.60;;;8.07;;
14903;SDS011;7543;53.148;8.234;2024-01-10T03:25:11;14.03;;;8.57;;
14903;SDS011;7543;53.148;8.234;2024-01-10T03:27:39;17.70;;;9.10;;
14903;SDS011;7543;53.148;8.234;2024-01-10T03:30:08;18.93;;;8.87;;
14903;SDS011;7543;53.148;8.234;2024-01-10T03:32:37;18.37;;;9.03;;
14903;SDS011;7543;53.148;8.234;2024-01-10T03:35:08;14.67;;;8.07;;
14903;SDS011;7543;53.148;8.234;2024-01-10T03:37:37;19.60;;;8.90;;
14903;SDS011;7543;53.148;8.234;2024-01-10T03:40:05;18.07;;;10.03;;
14903;SDS011;7543;53.148;8.234;2024-01-10T03:42:34;19.93;;;9.70;;
14903;SDS011;7543;53.148;8.234;2024-01-10T03:45:03;19.00;;;10.00;;
14903;SDS011;7543;53.148;8.234;2024-01-10T03:47:32;20.43;;;9.30;;
14903;SDS011;7543;53.148;8.234;2024-01-10T03:50:00;17.13;;;8.43;;
14903;SDS011;7543;53.148;8.234;2024-01-10T03:52:30;18.23;;;9.00;;
14903;SDS011;7543;53.148;8.234;2024-01-10T03:54:59;19.07;;;9.20;;
14903;SDS011;7543;53.148;8.234;2024-01-10T03:57:27;18.37;;;9.70;;
14903;SDS011;7543;53.148;8.234;2024-01-10T03:59:55;20.37;;;10.13;;
14903;SDS011;7543;53.148;8.234;2024-01-10T04:02:24;17.37;;;8.87;;
14903;SDS011;7543;53.148;8.234;2024-01-10T04:04:52;17.33;;;8.37;;
14903;SDS011;7543;53.148;8.234;2024-01-10T04:07:20;22.67;;;10.67;;
14903;SDS011;7543;53.148;8.234;2024-01-10T04:09:51;18.93;;;9.73;;
14903;SDS011;7543;53.148;8.234;2024-01-10T04:12:19;23.63;;;11.30;;
14903;SDS011;7543;53.148;8.234;2024-01-10T04:14:47;23.23;;;10.77;;
14903;SDS011;7543;53.148;8.234;2024-01-10T04:17:16;22.20;;;10.57;;
14903;SDS011;7543;53.148;8.234;2024-01-10T04:19:44;21.73;;;10.73;;
14903;SDS011;7543;53.148;8.234;2024-01-10T04:22:12;20.60;;;10.27;;
14903;SDS011;7543;53.148;8.234;2024-01-10T04:24:41;26.67;;;12.00;;
14903;SDS011;7543;53.148;8.234;2024-01-10T04:27:10;20.53;;;11.07;;
14903;SDS011;7543;53.148;8.234;2024-01-10T04:29:39;24.83;;;10.67;;
14903;SDS011;7543;53.148;8.234;2024-01-10T04:32:07;19.60;;;9.40;;
14903;SDS011;7543;53.148;8.234;2024-01-10T04:34:35;23.17;;;10.63;;
14903;SDS011;7543;53.148;8.234;2024-01-10T04:37:04;23.77;;;11.77;;
14903;SDS011;7543;53.148;8.234;2024-01-10T04:39:33;23.47;;;11.00;;
14903;SDS011;7543;53.148;8.234;2024-01-10T04:42:02;17.93;;;9.93;;
14903;SDS011;7543;53.148;8.234;2024-01-10T04:44:32;22.00;;;10.03;;
14903;SDS011;7543;53.148;8.234;2024-01-10T04:47:00;20.50;;;9.60;;
14903;SDS011;7543;53.148;8.234;2024-01-10T04:49:28;23.80;;;10.53;;
14903;SDS011;7543;53.148;8.234;2024-01-10T04:51:57;26.03;;;11.57;;
14903;SDS011;7543;53.148;8.234;2024-01-10T04:54:25;25.37;;;10.37;;
14903;SDS011;7543;53.148;8.234;2024-01-10T04:56:53;24.50;;;9.80;;
14903;SDS011;7543;53.148;8.234;2024-01-10T04:59:22;22.53;;;10.17;;
14903;SDS011;7543;53.148;8.234;2024-01-10T05:01:51;24.30;;;10.60;;
14903;SDS011;7543;53.148;8.234;2024-01-10T05:04:20;23.17;;;9.17;;
14903;SDS011;7543;53.148;8.234;2024-01-10T05:06:48;24.80;;;9.57;;
14903;SDS011;7543;53.148;8.234;2024-01-10T05:09:16;24.07;;;9.87;;
14903;SDS011;7543;53.148;8.234;2024-01-10T05:11:45;24.73;;;10.37;;
14903;SDS011;7543;53.148;8.234;2024-01-10T05:14:17;20.97;;;11.03;;
14903;SDS011;7543;53.148;8.234;2024-01-10T05:16:46;22.07;;;10.13;;
14903;SDS011;7543;53.148;8.234;2024-01-10T05:19:16;25.33;;;10.00;;
14903;SDS011;7543;53.148;8.234;2024-01-10T05:21:45;17.97;;;9.83;;
14903;SDS011;7543;53.148;8.234;2024-01-10T05:24:13;21.10;;;9.63;;
14903;SDS011;7543;53.148;8.234;2024-01-10T05:26:41;19.87;;;8.77;;
14903;SDS011;7543;53.148;8.234;2024-01-10T05:29:10;19.97;;;9.00;;
14903;SDS011;7543;53.148;8.234;2024-01-10T05:31:38;18.87;;;8.93;;
14903;SDS011;7543;53.148;8.234;2024-01-10T05:34:07;25.27;;;10.53;;
14903;SDS011;7543;53.148;8.234;2024-01-10T05:36:36;23.77;;;9.37;;
14903;SDS011;7543;53.148;8.234;2024-01-10T05:39:05;26.30;;;10.73;;
14903;SDS011;7543;53.148;8.234;2024-01-10T05:41:34;22.17;;;10.00;;
14903;SDS011;7543;53.148;8.234;2024-01-10T05:44:02;24.73;;;10.10;;
14903;SDS011;7543;53.148;8.234;2024-01-10T05:46:32;19.97;;;9.00;;
14903;SDS011;7543;53.148;8.234;2024-01-10T05:49:00;24.67;;;10.70;;
14903;SDS011;7543;53.148;8.234;2024-01-10T05:51:31;29.07;;;10.60;;
14903;SDS011;7543;53.148;8.234;2024-01-10T05:54:00;21.27;;;10.33;;
14903;SDS011;7543;53.148;8.234;2024-01-10T05:56:29;19.80;;;9.37;;
14903;SDS011;7543;53.148;8.234;2024-01-10T05:58:57;23.57;;;10.87;;
14903;SDS011;7543;53.148;8.234;2024-01-10T06:01:25;27.23;;;11.37;;
14903;SDS011;7543;53.148;8.234;2024-01-10T06:03:54;27.33;;;10.40;;
14903;SDS011;7543;53.148;8.234;2024-01-10T06:06:23;25.77;;;10.90;;
14903;SDS011;7543;53.148;8.234;2024-01-10T06:08:51;28.67;;;11.37;;
14903;SDS011;7543;53.148;8.234;2024-01-10T06:11:21;22.63;;;10.30;;
14903;SDS011;7543;53.148;8.234;2024-01-10T06:13:49;25.90;;;10.23;;
14903;SDS011;7543;53.148;8.234;2024-01-10T06:16:18;22.50;;;9.60;;
14903;SDS011;7543;53.148;8.234;2024-01-10T06:18:46;29.47;;;9.80;;
14903;SDS011;7543;53.148;8.234;2024-01-10T06:21:15;23.07;;;9.83;;
14903;SDS011;7543;53.148;8.234;2024-01-10T06:23:43;23.50;;;10.30;;
14903;SDS011;7543;53.148;8.234;2024-01-10T06:26:12;26.23;;;10.83;;
14903;SDS011;7543;53.148;8.234;2024-01-10T06:28:42;26.27;;;10.07;;
14903;SDS011;7543;53.148;8.234;2024-01-10T06:31:10;27.70;;;10.17;;
14903;SDS011;7543;53.148;8.234;2024-01-10T06:33:39;26.03;;;10.00;;
14903;SDS011;7543;53.148;8.234;2024-01-10T06:36:07;23.50;;;9.83;;
14903;SDS011;7543;53.148;8.234;2024-01-10T06:38:35;23.77;;;9.83;;
14903;SDS011;7543;53.148;8.234;2024-01-10T06:41:07;22.63;;;9.73;;
14903;SDS011;7543;53.148;8.234;2024-01-10T06:43:36;26.57;;;9.37;;
14903;SDS011;7543;53.148;8.234;2024-01-10T06:46:06;25.70;;;10.73;;
14903;SDS011;7543;53.148;8.234;2024-01-10T06:48:34;28.13;;;9.80;;
14903;SDS011;7543;53.148;8.234;2024-01-10T06:51:03;28.57;;;10.07;;
14903;SDS011;7543;53.148;8.234;2024-01-10T06:53:31;22.07;;;9.33;;
14903;SDS011;7543;53.148;8.234;2024-01-10T06:55:59;22.87;;;8.90;;
14903;SDS011;7543;53.148;8.234;2024-01-10T06:58:28;24.33;;;9.90;;
14903;SDS011;7543;53.148;8.234;2024-01-10T07:00:56;22.80;;;8.33;;
14903;SDS011;7543;53.148;8.234;2024-01-10T07:03:26;23.67;;;9.43;;
14903;SDS011;7543;53.148;8.234;2024-01-10T07:05:54;22.70;;;8.60;;
14903;SDS011;7543;53.148;8.234;2024-01-10T07:08:25;23.13;;;9.47;;
14903;SDS011;7543;53.148;8.234;2024-01-10T07:10:53;25.80;;;10.77;;
14903;SDS011;7543;53.148;8.234;2024-01-10T07:13:22;25.90;;;9.10;;
14903;SDS011;7543;53.148;8.234;2024-01-10T07:15:51;25.63;;;10.87;;
14903;SDS011;7543;53.148;8.234;2024-01-10T07:18:19;19.57;;;10.27;;
14903;SDS011;7543;53.148;8.234;2024-01-10T07:20:49;26.80;;;9.03;;
14903;SDS011;7543;53.148;8.234;2024-01-10T07:23:18;27.77;;;10.57;;
14903;SDS011;7543;53.148;8.234;2024-01-10T07:25:46;25.97;;;9.93;;
14903;SDS011;7543;53.148;8.234;2024-01-10T07:28:15;26.00;;;10.73;;
14903;SDS011;7543;53.148;8.234;2024-01-10T07:30:43;31.13;;;10.07;;
14903;SDS011;7543;53.148;8.234;2024-01-10T07:33:12;19.43;;;8.97;;
14903;SDS011;7543;53.148;8.234;2024-01-10T07:35:40;26.53;;;10.00;;
14903;SDS011;7543;53.148;8.234;2024-01-10T07:38:10;24.63;;;9.83;;
14903;SDS011;7543;53.148;8.234;2024-01-10T07:40:38;21.93;;;8.93;;
14903;SDS011;7543;53.148;8.234;2024-01-10T07:43:06;23.87;;;9.73;;
14903;SDS011;7543;53.148;8.234;2024-01-10T07:45:35;19.83;;;8.43;;
14903;SDS011;7543;53.148;8.234;2024-01-10T07:48:03;30.40;;;10.10;;
14903;SDS011;7543;53.148;8.234;2024-01-10T07:50:32;21.67;;;9.80;;
14903;SDS011;7543;53.148;8.234;2024-01-10T07:53:01;23.53;;;10.00;;
14903;SDS011;7543;53.148;8.234;2024-01-10T07:55:31;22.50;;;9.50;;
14903;SDS011;7543;53.148;8.234;2024-01-10T07:57:59;19.80;;;9.33;;
14903;SDS011;7543;53.148;8.234;2024-01-10T08:00:28;23.53;;;9.70;;
14903;SDS011;7543;53.148;8.234;2024-01-10T08:02:56;18.20;;;8.07;;
14903;SDS011;7543;53.148;8.234;2024-01-10T08:05:25;24.57;;;9.10;;
14903;SDS011;7543;53.148;8.234;2024-01-10T08:07:53;22.13;;;9.57;;
14903;SDS011;7543;53.148;8.234;2024-01-10T08:10:23;18.67;;;8.57;;
14903;SDS011;7543;53.148;8.234;2024-01-10T08:12:53;23.07;;;9.17;;
14903;SDS011;7543;53.148;8.234;2024-01-10T08:15:21;31.20;;;11.50;;
14903;SDS011;7543;53.148;8.234;2024-01-10T08:17:49;24.93;;;9.50;;
14903;SDS011;7543;53.148;8.234;2024-01-10T08:20:21;24.60;;;9.23;;
14903;SDS011;7543;53.148;8.234;2024-01-10T08:22:49;28.57;;;10.03;;
14903;SDS011;7543;53.148;8.234;2024-01-10T08:25:18;24.10;;;8.80;;
14903;SDS011;7543;53.148;8.234;2024-01-10T08:27:46;23.03;;;8.77;;
14903;SDS011;7543;53.148;8.234;2024-01-10T08:30:17;21.80;;;8.77;;
14903;SDS011;7543;53.148;8.234;2024-01-10T08:32:45;23.00;;;8.30;;
14903;SDS011;7543;53.148;8.234;2024-01-10T08:35:13;23.17;;;9.13;;
14903;SDS011;7543;53.148;8.234;2024-01-10T08:37:42;25.13;;;8.90;;
14903;SDS011;7543;53.148;8.234;2024-01-10T08:40:11;19.03;;;8.53;;
14903;SDS011;7543;53.148;8.234;2024-01-10T08:42:41;19.83;;;8.80;;
14903;SDS011;7543;53.148;8.234;2024-01-10T08:45:10;22.30;;;9.50;;
14903;SDS011;7543;53.148;8.234;2024-01-10T08:47:39;19.90;;;8.80;;
14903;SDS011;7543;53.148;8.234;2024-01-10T08:50:08;21.50;;;8.57;;
14903;SDS011;7543;53.148;8.234;2024-01-10T08:52:37;22.57;;;9.03;;
14903;SDS011;7543;53.148;8.234;2024-01-10T08:55:08;21.23;;;9.33;;
14903;SDS011;7543;53.148;8.234;2024-01-10T08:57:36;25.83;;;9.90;;
14903;SDS011;7543;53.148;8.234;2024-01-10T09:00:05;27.00;;;10.23;;
14903;SDS011;7543;53.148;8.234;2024-01-10T09:02:37;25.10;;;9.53;;
14903;SDS011;7543;53.148;8.234;2024-01-10T09:05:07;20.30;;;8.00;;
14903;SDS011;7543;53.148;8.234;2024-01-10T09:07:36;22.37;;;9.77;;
14903;SDS011;7543;53.148;8.234;2024-01-10T09:10:05;21.67;;;9.67;;
14903;SDS011;7543;53.148;8.234;2024-01-10T09:12:35;18.57;;;9.43;;
14903;SDS011;7543;53.148;8.234;2024-01-10T09:15:04;23.40;;;10.20;;
14903;SDS011;7543;53.148;8.234;2024-01-10T09:17:35;20.47;;;9.20;;
14903;SDS011;7543;53.148;8.234;2024-01-10T09:20:03;28.57;;;10.37;;
14903;SDS011;7543;53.148;8.234;2024-01-10T09:22:33;18.77;;;7.77;;
14903;SDS011;7543;53.148;8.234;2024-01-10T09:25:02;19.97;;;9.47;;
14903;SDS011;7543;53.148;8.234;2024-01-10T09:27:32;26.77;;;9.40;;
14903;SDS011;7543;53.148;8.234;2024-01-10T09:30:01;24.60;;;10.03;;
14903;SDS011;7543;53.148;8.234;2024-01-10T09:32:30;22.87;;;9.47;;
14903;SDS011;7543;53.148;8.234;2024-01-10T09:34:58;24.50;;;10.30;;
14903;SDS011;7543;53.148;8.234;2024-01-10T09:37:27;22.33;;;10.40;;
14903;SDS011;7543;53.148;8.234;2024-01-10T09:39:56;26.07;;;11.20;;
14903;SDS011;7543;53.148;8.234;2024-01-10T09:42:25;22.43;;;10.47;;
14903;SDS011;7543;53.148;8.234;2024-01-10T09:44:53;28.60;;;10.83;;
14903;SDS011;7543;53.148;8.234;2024-01-10T09:47:22;21.23;;;9.47;;
14903;SDS011;7543;53.148;8.234;2024-01-10T09:49:51;19.23;;;8.80;;
14903;SDS011;7543;53.148;8.234;2024-01-10T09:52:22;20.27;;;8.67;;
14903;SDS011;7543;53.148;8.234;2024-01-10T09:54:53;20.50;;;9.07;;
14903;SDS011;7543;53.148;8.234;2024-01-10T09:57:24;25.93;;;10.27;;
14903;SDS011;7543;53.148;8.234;2024-01-10T09:59:53;30.30;;;10.67;;
14903;SDS011;7543;53.148;8.234;2024-01-10T10:02:21;20.67;;;8.90;;
14903;SDS011;7543;53.148;8.234;2024-01-10T10:04:53;20.00;;;8.83;;
14903;SDS011;7543;53.148;8.234;2024-01-10T10:07:29;18.50;;;8.37;;
14903;SDS011;7543;53.148;8.234;2024-01-10T10:09:57;20.27;;;8.40;;
14903;SDS011;7543;53.148;8.234;2024-01-10T10:15:11;14.77;;;7.40;;
14903;SDS011;7543;53.148;8.234;2024-01-10T10:17:41;16.80;;;7.47;;
14903;SDS011;7543;53.148;8.234;2024-01-10T10:20:13;16.83;;;7.60;;
14903;SDS011;7543;53.148;8.234;2024-01-10T10:22:56;21.00;;;8.73;;
14903;SDS011;7543;53.148;8.234;2024-01-10T10:25:27;13.93;;;7.20;;
14903;SDS011;7543;53.148;8.234;2024-01-10T10:27:59;15.47;;;7.43;;
14903;SDS011;7543;53.148;8.234;2024-01-10T10:30:28;18.33;;;7.17;;
14903;SDS011;7543;53.148;8.234;2024-01-10T10:32:57;19.60;;;6.87;;
14903;SDS011;7543;53.148;8.234;2024-01-10T10:35:25;18.07;;;7.50;;
14903;SDS011;7543;53.148;8.234;2024-01-10T10:37:54;15.03;;;7.27;;
14903;SDS011;7543;53.148;8.234;2024-01-10T10:40:22;14.67;;;6.90;;
14903;SDS011;7543;53.148;8.234;2024-01-10T10:42:53;16.40;;;7.10;;
14903;SDS011;7543;53.148;8.234;2024-01-10T10:45:24;18.50;;;7.50;;
14903;SDS011;7543;53.148;8.234;2024-01-10T10:47:54;15.37;;;7.00;;
14903;SDS011;7543;53.148;8.234;2024-01-10T10:50:26;15.50;;;7.13;;
14903;SDS011;7543;53.148;8.234;2024-01-10T10:52:56;14.93;;;6.90;;
14903;SDS011;7543;53.148;8.234;2024-01-10T10:55:25;15.30;;;6.87;;
14903;SDS011;7543;53.148;8.234;2024-01-10T10:57:54;18.00;;;6.93;;
14903;SDS011;7543;53.148;8.234;2024-01-10T11:00:25;14.30;;;6.70;;
14903;SDS011;7543;53.148;8.234;2024-01-10T11:02:55;17.53;;;7.33;;
14903;SDS011;7543;53.148;8.234;2024-01-10T11:05:24;16.40;;;6.47;;
14903;SDS011;7543;53.148;8.234;2024-01-10T11:07:52;13.67;;;6.20;;
14903;SDS011;7543;53.148;8.234;2024-01-10T11:10:21;15.00;;;6.83;;
14903;SDS011;7543;53.148;8.234;2024-01-10T11:15:53;14.30;;;6.70;;
14903;SDS011;7543;53.148;8.234;2024-01-10T11:18:37;12.43;;;6.37;;
14903;SDS011;7543;53.148;8.234;2024-01-10T11:21:16;13.83;;;6.27;;
14903;SDS011;7543;53.148;8.234;2024-01-10T11:23:47;16.67;;;6.87;;
14903;SDS011;7543;53.148;8.234;2024-01-10T11:26:17;16.07;;;7.07;;
14903;SDS011;7543;53.148;8.234;2024-01-10T11:28:47;15.97;;;7.23;;
14903;SDS011;7543;53.148;8.234;2024-01-10T11:31:26;14.97;;;6.17;;
14903;SDS011;7543;53.148;8.234;2024-01-10T11:33:55;13.57;;;6.40;;
14903;SDS011;7543;53.148;8.234;2024-01-10T11:36:24;14.57;;;6.73;;
14903;SDS011;7543;53.148;8.234;2024-01-10T11:38:54;12.87;;;6.30;;
14903;SDS011;7543;53.148;8.234;2024-01-10T11:41:24;13.33;;;6.23;;
14903;SDS011;7543;53.148;8.234;2024-01-10T11:46:58;12.87;;;5.87;;
14903;SDS011;7543;53.148;8.234;2024-01-10T11:49:27;12.77;;;6.33;;
14903;SDS011;7543;53.148;8.234;2024-01-10T11:51:56;14.10;;;5.73;;
14903;SDS011;7543;53.148;8.234;2024-01-10T11:54:41;11.53;;;6.30;;
14903;SDS011;7543;53.148;8.234;2024-01-10T11:57:10;11.30;;;6.30;;
14903;SDS011;7543;53.148;8.234;2024-01-10T11:59:41;15.83;;;6.07;;
14903;SDS011;7543;53.148;8.234;2024-01-10T12:02:12;12.93;;;5.67;;
14903;SDS011;7543;53.148;8.234;2024-01-10T12:04:41;11.80;;;5.80;;
14903;SDS011;7543;53.148;8.234;2024-01-10T12:07:10;11.13;;;5.47;;
14903;SDS011;7543;53.148;8.234;2024-01-10T12:09:39;11.50;;;5.37;;
14903;SDS011;7543;53.148;8.234;2024-01-10T12:12:08;10.77;;;5.23;;
14903;SDS011;7543;53.148;8.234;2024-01-10T12:14:38;8.27;;;4.43;;
14903;SDS011;7543;53.148;8.234;2024-01-10T12:17:06;12.87;;;5.23;;
14903;SDS011;7543;53.148;8.234;2024-01-10T12:19:36;10.40;;;5.00;;
14903;SDS011;7543;53.148;8.234;2024-01-10T12:22:05;11.77;;;5.50;;
14903;SDS011;7543;53.148;8.234;2024-01-10T12:24:33;10.03;;;5.03;;
14903;SDS011;7543;53.148;8.234;2024-01-10T12:27:01;11.00;;;4.97;;
14903;SDS011;7543;53.148;8.234;2024-01-10T12:29:30;10.93;;;5.30;;
14903;SDS011;7543;53.148;8.234;2024-01-10T12:31:59;9.37;;;4.37;;
14903;SDS011;7543;53.148;8.234;2024-01-10T12:34:27;8.80;;;4.37;;
14903;SDS011;7543;53.148;8.234;2024-01-10T12:36:57;7.13;;;3.97;;
14903;SDS011;7543;53.148;8.234;2024-01-10T12:39:26;7.63;;;4.37;;
14903;SDS011;7543;53.148;8.234;2024-01-10T12:41:58;9.47;;;4.80;;
14903;SDS011;7543;53.148;8.234;2024-01-10T12:44:27;10.27;;;4.20;;
14903;SDS011;7543;53.148;8.234;2024-01-10T12:46:56;11.33;;;4.50;;
14903;SDS011;7543;53.148;8.234;2024-01-10T12:49:24;9.37;;;4.10;;
14903;SDS011;7543;53.148;8.234;2024-01-10T12:51:53;7.87;;;3.67;;
14903;SDS011;7543;53.148;8.234;2024-01-10T12:54:22;9.60;;;5.03;;
14903;SDS011;7543;53.148;8.234;2024-01-10T12:56:51;11.03;;;5.83;;
14903;SDS011;7543;53.148;8.234;2024-01-10T12:59:20;23.27;;;7.93;;
14903;SDS011;7543;53.148;8.234;2024-01-10T13:01:49;15.30;;;6.57;;
14903;SDS011;7543;53.148;8.234;2024-01-10T13:04:17;13.97;;;6.73;;
14903;SDS011;7543;53.148;8.234;2024-01-10T13:06:45;15.53;;;6.30;;
14903;SDS011;7543;53.148;8.234;2024-01-10T13:09:14;14.37;;;6.83;;
14903;SDS011;7543;53.148;8.234;2024-01-10T13:11:43;15.80;;;7.40;;
14903;SDS011;7543;53.148;8.234;2024-01-10T13:14:12;8.50;;;4.63;;
14903;SDS011;7543;53.148;8.234;2024-01-10T13:16:40;11.70;;;5.50;;
14903;SDS011;7543;53.148;8.234;2024-01-10T13:19:09;11.07;;;5.30;;
14903;SDS011;7543;53.148;8.234;2024-01-10T13:21:38;10.10;;;5.23;;
14903;SDS011;7543;53.148;8.234;2024-01-10T13:24:06;8.60;;;5.13;;
14903;SDS011;7543;53.148;8.234;2024-01-10T13:26:35;9.90;;;4.77;;
14903;SDS011;7543;53.148;8.234;2024-01-10T13:29:05;9.90;;;5.03;;
14903;SDS011;7543;53.148;8.234;2024-01-10T13:31:34;8.93;;;4.57;;
14903;SDS011;7543;53.148;8.234;2024-01-10T13:34:03;14.67;;;6.07;;
14903;SDS011;7543;53.148;8.234;2024-01-10T13:36:31;10.17;;;5.67;;
14903;SDS011;7543;53.148;8.234;2024-01-10T13:38:59;11.33;;;5.27;;
14903;SDS011;7543;53.148;8.234;2024-01-10T13:41:30;10.57;;;5.63;;
14903;SDS011;7543;53.148;8.234;2024-01-10T13:43:58;12.30;;;5.80;;
14903;SDS011;7543;53.148;8.234;2024-01-10T13:46:28;11.90;;;5.20;;
14903;SDS011;7543;53.148;8.234;2024-01-10T13:48:56;9.87;;;5.53;;
14903;SDS011;7543;53.148;8.234;2024-01-10T13:51:25;9.10;;;5.47;;
14903;SDS011;7543;53.148;8.234;2024-01-10T13:53:53;12.10;;;5.80;;
14903;SDS011;7543;53.148;8.234;2024-01-10T13:56:21;11.30;;;6.00;;
14903;SDS011;7543;53.148;8.234;2024-01-10T13:58:50;13.47;;;5.80;;
14903;SDS011;7543;53.148;8.234;2024-01-10T14:01:18;10.17;;;5.57;;
14903;SDS011;7543;53.148;8.234;2024-01-10T14:03:48;9.80;;;5.33;;
14903;SDS011;7543;53.148;8.234;2024-01-10T14:06:16;10.97;;;5.47;;
14903;SDS011;7543;53.148;8.234;2024-01-10T14:08:44;9.60;;;5.40;;
14903;SDS011;7543;53.148;8.234;2024-01-10T14:11:15;8.90;;;5.20;;
14903;SDS011;7543;53.148;8.234;2024-01-10T14:13:43;11.43;;;5.60;;
14903;SDS011;7543;53.148;8.234;2024-01-10T14:16:12;9.87;;;5.67;;
14903;SDS011;7543;53.148;8.234;2024-01-10T14:18:40;8.80;;;5.17;;
14903;SDS011;7543;53.148;8.234;2024-01-10T14:21:10;11.83;;;5.30;;
14903;SDS011;7543;53.148;8.234;2024-01-10T14:23:38;8.80;;;5.20;;
14903;SDS011;7543;53.148;8.234;2024-01-10T14:26:06;12.47;;;5.63;;
14903;SDS011;7543;53.148;8.234;2024-01-10T14:28:35;11.30;;;5.80;;
14903;SDS011;7543;53.148;8.234;2024-01-10T14:31:04;10.13;;;5.87;;
14903;SDS011;7543;53.148;8.234;2024-01-10T14:33:33;10.67;;;5.50;;
14903;SDS011;7543;53.148;8.234;2024-01-10T14:36:01;10.13;;;5.30;;
14903;SDS011;7543;53.148;8.234;2024-01-10T14:38:32;10.70;;;5.73;;
14903;SDS011;7543;53.148;8.234;2024-01-10T14:41:01;10.33;;;5.33;;
14903;SDS011;7543;53.148;8.234;2024-01-10T14:43:29;12.43;;;6.33;;
14903;SDS011;7543;53.148;8.234;2024-01-10T14:45:57;11.90;;;6.07;;
14903;SDS011;7543;53.148;8.234;2024-01-10T14:48:26;10.33;;;5.30;;
14903;SDS011;7543;53.148;8.234;2024-01-10T14:50:54;13.17;;;6.23;;
14903;SDS011;7543;53.148;8.234;2024-01-10T14:53:23;10.90;;;5.43;;
14903;SDS011;7543;53.148;8.234;2024-01-10T14:55:53;12.13;;;6.20;;
14903;SDS011;7543;53.148;8.234;2024-01-10T14:58:22;14.00;;;6.23;;
14903;SDS011;7543;53.148;8.234;2024-01-10T15:00:50;11.73;;;6.40;;
14903;SDS011;7543;53.148;8.234;2024-01-10T15:03:18;12.83;;;6.53;;
14903;SDS011;7543;53.148;8.234;2024-01-10T15:05:47;18.03;;;7.63;;